sensor_id;sensor_type;location;lat;lon;timestamp;P1;durP1;ratioP1;P2;durP2;ratioP2
4210;SDS011;2119;48.828;12.396;2023-04-25T00:01:42;3.95;;;3.65;;
4210;SDS011;2119;48.828;12.396;2023-04-25T00:06:43;4.55;;;4.03;;
4210;SDS011;2119;48.828;12.396;2023-04-25T00:11:44;3.75;;;3.45;;
4210;SDS011;2119;48.828;12.396;2023-04-25T00:16:44;3.73;;;3.43;;
4210;SDS011;2119;48.828;12.396;2023-04-25T00:21:44;3.47;;;3.28;;
4210;SDS011;2119;48.828;12.396;2023-04-25T00:26:47;3.43;;;3.23;;
4210;SDS011;2119;48.828;12.396;2023-04-25T00:31:47;3.63;;;3.20;;
4210;SDS011;2119;48.828;12.396;2023-04-25T00:36:48;3.72;;;3.40;;
4210;SDS011;2119;48.828;12.396;2023-04-25T00:41:49;6.93;;;3.70;;
4210;SDS011;2119;48.828;12.396;2023-04-25T00:46:54;4.47;;;4.17;;
4210;SDS011;2119;48.828;12.396;2023-04-25T00:51:55;3.80;;;3.50;;
4210;SDS011;2119;48.828;12.396;2023-04-25T00:56:55;3.83;;;3.53;;
4210;SDS011;2119;48.828;12.396;2023-04-25T01:01:55;4.15;;;3.83;;
4210;SDS011;2119;48.828;12.396;2023-04-25T01:06:55;3.72;;;3.42;;
4210;SDS011;2119;48.828;12.396;2023-04-25T01:11:56;4.50;;;4.20;;
4210;SDS011;2119;48.828;12.396;2023-04-25T01:16:57;4.10;;;3.80;;
4210;SDS011;2119;48.828;12.396;2023-04-25T01:21:58;3.67;;;3.37;;
4210;SDS011;2119;48.828;12.396;2023-04-25T01:26:59;4.70;;;3.77;;
4210;SDS011;2119;48.828;12.396;2023-04-25T01:32:00;4.10;;;3.80;;
4210;SDS011;2119;48.828;12.396;2023-04-25T01:37:01;5.23;;;3.90;;
4210;SDS011;2119;48.828;12.396;2023-04-25T01:42:04;4.77;;;4.37;;
4210;SDS011;2119;48.828;12.396;2023-04-25T01:47:04;3.30;;;3.10;;
4210;SDS011;2119;48.828;12.396;2023-04-25T01:52:04;4.10;;;3.70;;
4210;SDS011;2119;48.828;12.396;2023-04-25T01:57:05;3.70;;;3.40;;
4210;SDS011;2119;48.828;12.396;2023-04-25T02:02:06;4.00;;;3.67;;
4210;SDS011;2119;48.828;12.396;2023-04-25T02:07:06;3.77;;;3.47;;
4210;SDS011;2119;48.828;12.396;2023-04-25T02:12:07;3.80;;;3.60;;
4210;SDS011;2119;48.828;12.396;2023-04-25T02:17:07;4.20;;;3.90;;
4210;SDS011;2119;48.828;12.396;2023-04-25T02:22:08;4.32;;;3.92;;
4210;SDS011;2119;48.828;12.396;2023-04-25T02:27:09;7.18;;;3.92;;
4210;SDS011;2119;48.828;12.396;2023-04-25T02:32:09;5.90;;;4.60;;
4210;SDS011;2119;48.828;12.396;2023-04-25T02:37:10;4.45;;;4.10;;
4210;SDS011;2119;48.828;12.396;2023-04-25T02:42:10;10.10;;;4.30;;
4210;SDS011;2119;48.828;12.396;2023-04-25T02:47:10;4.60;;;4.30;;
4210;SDS011;2119;48.828;12.396;2023-04-25T02:52:12;4.77;;;3.60;;
4210;SDS011;2119;48.828;12.396;2023-04-25T02:57:12;4.30;;;4.00;;
4210;SDS011;2119;48.828;12.396;2023-04-25T03:02:12;6.40;;;4.05;;
4210;SDS011;2119;48.828;12.396;2023-04-25T03:07:12;4.07;;;3.78;;
4210;SDS011;2119;48.828;12.396;2023-04-25T03:12:14;4.40;;;4.05;;
4210;SDS011;2119;48.828;12.396;2023-04-25T03:17:14;4.50;;;4.10;;
4210;SDS011;2119;48.828;12.396;2023-04-25T03:22:15;3.75;;;3.45;;
4210;SDS011;2119;48.828;12.396;2023-04-25T03:27:15;4.43;;;4.03;;
4210;SDS011;2119;48.828;12.396;2023-04-25T03:32:15;4.20;;;3.90;;
4210;SDS011;2119;48.828;12.396;2023-04-25T03:37:16;4.68;;;4.30;;
4210;SDS011;2119;48.828;12.396;2023-04-25T03:42:16;5.40;;;4.90;;
4210;SDS011;2119;48.828;12.396;2023-04-25T03:47:17;5.30;;;4.80;;
4210;SDS011;2119;48.828;12.396;2023-04-25T03:52:17;5.25;;;4.13;;
4210;SDS011;2119;48.828;12.396;2023-04-25T03:57:19;4.60;;;4.20;;
4210;SDS011;2119;48.828;12.396;2023-04-25T04:02:19;5.30;;;3.70;;
4210;SDS011;2119;48.828;12.396;2023-04-25T04:07:19;3.97;;;3.67;;
4210;SDS011;2119;48.828;12.396;2023-04-25T04:12:19;4.57;;;4.20;;
4210;SDS011;2119;48.828;12.396;2023-04-25T04:17:20;4.10;;;3.80;;
4210;SDS011;2119;48.828;12.396;2023-04-25T04:22:20;6.60;;;3.50;;
4210;SDS011;2119;48.828;12.396;2023-04-25T04:27:21;4.90;;;4.47;;
4210;SDS011;2119;48.828;12.396;2023-04-25T04:32:21;4.77;;;4.37;;
4210;SDS011;2119;48.828;12.396;2023-04-25T04:37:23;4.83;;;4.37;;
4210;SDS011;2119;48.828;12.396;2023-04-25T04:42:24;3.93;;;3.60;;
4210;SDS011;2119;48.828;12.396;2023-04-25T04:47:25;5.50;;;4.77;;
4210;SDS011;2119;48.828;12.396;2023-04-25T04:52:26;7.80;;;7.03;;
4210;SDS011;2119;48.828;12.396;2023-04-25T05:02:36;5.50;;;5.00;;
4210;SDS011;2119;48.828;12.396;2023-04-25T05:07:37;8.53;;;5.67;;
4210;SDS011;2119;48.828;12.396;2023-04-25T05:12:37;7.57;;;6.07;;
4210;SDS011;2119;48.828;12.396;2023-04-25T05:17:37;4.60;;;4.20;;
4210;SDS011;2119;48.828;12.396;2023-04-25T05:22:39;3.43;;;3.13;;
4210;SDS011;2119;48.828;12.396;2023-04-25T05:27:39;5.43;;;3.90;;
4210;SDS011;2119;48.828;12.396;2023-04-25T05:32:39;5.50;;;4.50;;
4210;SDS011;2119;48.828;12.396;2023-04-25T05:37:40;7.23;;;5.30;;
4210;SDS011;2119;48.828;12.396;2023-04-25T05:42:41;7.20;;;5.93;;
4210;SDS011;2119;48.828;12.396;2023-04-25T05:47:42;6.90;;;4.50;;
4210;SDS011;2119;48.828;12.396;2023-04-25T05:52:42;15.18;;;7.80;;
4210;SDS011;2119;48.828;12.396;2023-04-25T05:57:42;6.50;;;5.93;;
4210;SDS011;2119;48.828;12.396;2023-04-25T06:02:45;7.47;;;6.67;;
4210;SDS011;2119;48.828;12.396;2023-04-25T06:07:46;22.08;;;15.27;;
4210;SDS011;2119;48.828;12.396;2023-04-25T06:12:48;12.40;;;10.70;;
4210;SDS011;2119;48.828;12.396;2023-04-25T06:17:48;8.80;;;6.90;;
4210;SDS011;2119;48.828;12.396;2023-04-25T06:22:49;5.13;;;4.63;;
4210;SDS011;2119;48.828;12.396;2023-04-25T06:27:49;5.50;;;4.43;;
4210;SDS011;2119;48.828;12.396;2023-04-25T06:32:50;4.57;;;4.10;;
4210;SDS011;2119;48.828;12.396;2023-04-25T06:37:50;7.07;;;5.53;;
4210;SDS011;2119;48.828;12.396;2023-04-25T06:42:51;5.75;;;5.25;;
4210;SDS011;2119;48.828;12.396;2023-04-25T06:47:52;7.13;;;5.93;;
4210;SDS011;2119;48.828;12.396;2023-04-25T06:52:53;12.77;;;8.23;;
4210;SDS011;2119;48.828;12.396;2023-04-25T06:57:53;6.90;;;4.50;;
4210;SDS011;2119;48.828;12.396;2023-04-25T07:02:53;4.13;;;3.73;;
4210;SDS011;2119;48.828;12.396;2023-04-25T07:07:55;4.65;;;3.60;;
4210;SDS011;2119;48.828;12.396;2023-04-25T07:12:59;6.73;;;4.40;;
4210;SDS011;2119;48.828;12.396;2023-04-25T07:18:04;3.80;;;3.50;;
4210;SDS011;2119;48.828;12.396;2023-04-25T07:23:05;4.23;;;3.83;;
4210;SDS011;2119;48.828;12.396;2023-04-25T07:28:06;6.23;;;3.67;;
4210;SDS011;2119;48.828;12.396;2023-04-25T07:33:06;3.70;;;3.40;;
4210;SDS011;2119;48.828;12.396;2023-04-25T07:38:06;5.00;;;4.50;;
4210;SDS011;2119;48.828;12.396;2023-04-25T07:43:08;4.23;;;3.70;;
4210;SDS011;2119;48.828;12.396;2023-04-25T07:48:20;4.00;;;3.70;;
4210;SDS011;2119;48.828;12.396;2023-04-25T07:58:35;4.07;;;3.40;;
4210;SDS011;2119;48.828;12.396;2023-04-25T08:03:36;3.47;;;2.80;;
4210;SDS011;2119;48.828;12.396;2023-04-25T08:08:40;3.30;;;3.07;;
4210;SDS011;2119;48.828;12.396;2023-04-25T08:13:45;3.30;;;2.93;;
4210;SDS011;2119;48.828;12.396;2023-04-25T08:18:48;3.53;;;3.23;;
4210;SDS011;2119;48.828;12.396;2023-04-25T08:23:49;4.00;;;3.47;;
4210;SDS011;2119;48.828;12.396;2023-04-25T08:28:50;4.50;;;4.10;;
4210;SDS011;2119;48.828;12.396;2023-04-25T08:33:51;4.60;;;4.30;;
4210;SDS011;2119;48.828;12.396;2023-04-25T08:38:53;4.57;;;4.27;;
4210;SDS011;2119;48.828;12.396;2023-04-25T08:43:54;4.90;;;4.50;;
4210;SDS011;2119;48.828;12.396;2023-04-25T08:54:05;5.40;;;4.90;;
4210;SDS011;2119;48.828;12.396;2023-04-25T09:04:14;5.37;;;4.87;;
4210;SDS011;2119;48.828;12.396;2023-04-25T09:09:15;4.50;;;4.10;;
4210;SDS011;2119;48.828;12.396;2023-04-25T09:14:16;4.53;;;4.23;;
4210;SDS011;2119;48.828;12.396;2023-04-25T09:19:23;4.10;;;3.80;;
4210;SDS011;2119;48.828;12.396;2023-04-25T09:24:37;3.67;;;3.37;;
4210;SDS011;2119;48.828;12.396;2023-04-25T09:29:38;3.90;;;3.60;;
4210;SDS011;2119;48.828;12.396;2023-04-25T09:34:39;5.20;;;4.80;;
4210;SDS011;2119;48.828;12.396;2023-04-25T09:39:40;4.87;;;4.47;;
4210;SDS011;2119;48.828;12.396;2023-04-25T09:44:44;5.30;;;5.00;;
4210;SDS011;2119;48.828;12.396;2023-04-25T09:49:45;3.80;;;3.60;;
4210;SDS011;2119;48.828;12.396;2023-04-25T09:54:45;3.10;;;2.90;;
4210;SDS011;2119;48.828;12.396;2023-04-25T10:04:50;1.90;;;1.60;;
4210;SDS011;2119;48.828;12.396;2023-04-25T10:09:54;2.30;;;2.10;;
4210;SDS011;2119;48.828;12.396;2023-04-25T10:14:55;1.50;;;1.40;;
4210;SDS011;2119;48.828;12.396;2023-04-25T10:20:02;2.27;;;2.03;;
4210;SDS011;2119;48.828;12.396;2023-04-25T10:25:05;2.57;;;2.37;;
4210;SDS011;2119;48.828;12.396;2023-04-25T10:30:07;2.83;;;2.37;;
4210;SDS011;2119;48.828;12.396;2023-04-25T10:35:17;6.70;;;2.70;;
4210;SDS011;2119;48.828;12.396;2023-04-25T10:40:21;4.60;;;4.20;;
4210;SDS011;2119;48.828;12.396;2023-04-25T10:45:22;4.97;;;4.57;;
4210;SDS011;2119;48.828;12.396;2023-04-25T10:50:23;4.90;;;4.53;;
4210;SDS011;2119;48.828;12.396;2023-04-25T10:55:59;5.07;;;4.67;;
4210;SDS011;2119;48.828;12.396;2023-04-25T11:00:58;3.90;;;3.60;;
4210;SDS011;2119;48.828;12.396;2023-04-25T11:06:00;8.30;;;6.00;;
4210;SDS011;2119;48.828;12.396;2023-04-25T11:11:02;4.20;;;3.90;;
4210;SDS011;2119;48.828;12.396;2023-04-25T11:16:02;4.15;;;3.85;;
4210;SDS011;2119;48.828;12.396;2023-04-25T11:21:02;4.40;;;4.07;;
4210;SDS011;2119;48.828;12.396;2023-04-25T11:26:06;4.78;;;4.38;;
4210;SDS011;2119;48.828;12.396;2023-04-25T11:31:07;3.40;;;3.20;;
4210;SDS011;2119;48.828;12.396;2023-04-25T11:36:09;5.13;;;4.63;;
4210;SDS011;2119;48.828;12.396;2023-04-25T11:41:10;5.63;;;4.00;;
4210;SDS011;2119;48.828;12.396;2023-04-25T11:46:10;9.90;;;5.53;;
4210;SDS011;2119;48.828;12.396;2023-04-25T11:51:12;4.53;;;4.23;;
4210;SDS011;2119;48.828;12.396;2023-04-25T11:56:12;6.00;;;5.50;;
4210;SDS011;2119;48.828;12.396;2023-04-25T12:01:24;6.70;;;6.00;;
4210;SDS011;2119;48.828;12.396;2023-04-25T12:06:27;8.43;;;7.37;;
4210;SDS011;2119;48.828;12.396;2023-04-25T12:11:30;5.60;;;5.10;;
4210;SDS011;2119;48.828;12.396;2023-04-25T12:16:44;6.10;;;5.50;;
4210;SDS011;2119;48.828;12.396;2023-04-25T12:21:44;5.90;;;5.40;;
4210;SDS011;2119;48.828;12.396;2023-04-25T12:31:50;3.50;;;3.20;;
4210;SDS011;2119;48.828;12.396;2023-04-25T12:36:52;2.80;;;2.60;;
4210;SDS011;2119;48.828;12.396;2023-04-25T12:41:53;4.75;;;2.75;;
4210;SDS011;2119;48.828;12.396;2023-04-25T12:46:55;2.57;;;2.13;;
4210;SDS011;2119;48.828;12.396;2023-04-25T12:52:00;2.23;;;2.00;;
4210;SDS011;2119;48.828;12.396;2023-04-25T12:57:02;2.60;;;2.40;;
4210;SDS011;2119;48.828;12.396;2023-04-25T13:02:03;2.40;;;2.20;;
4210;SDS011;2119;48.828;12.396;2023-04-25T13:07:04;2.53;;;2.33;;
4210;SDS011;2119;48.828;12.396;2023-04-25T13:12:05;3.30;;;3.07;;
4210;SDS011;2119;48.828;12.396;2023-04-25T13:17:05;3.05;;;2.60;;
4210;SDS011;2119;48.828;12.396;2023-04-25T13:22:05;8.30;;;7.13;;
4210;SDS011;2119;48.828;12.396;2023-04-25T13:27:06;2.77;;;2.57;;
4210;SDS011;2119;48.828;12.396;2023-04-25T13:32:08;3.05;;;2.55;;
4210;SDS011;2119;48.828;12.396;2023-04-25T13:37:08;3.60;;;2.70;;
4210;SDS011;2119;48.828;12.396;2023-04-25T13:42:11;6.07;;;2.92;;
4210;SDS011;2119;48.828;12.396;2023-04-25T13:47:13;2.90;;;2.57;;
4210;SDS011;2119;48.828;12.396;2023-04-25T13:57:17;5.37;;;3.37;;
4210;SDS011;2119;48.828;12.396;2023-04-25T14:02:17;4.43;;;3.27;;
4210;SDS011;2119;48.828;12.396;2023-04-25T14:07:21;2.50;;;2.30;;
4210;SDS011;2119;48.828;12.396;2023-04-25T14:12:21;2.73;;;2.53;;
4210;SDS011;2119;48.828;12.396;2023-04-25T14:17:22;3.55;;;2.38;;
4210;SDS011;2119;48.828;12.396;2023-04-25T14:22:23;4.43;;;4.03;;
4210;SDS011;2119;48.828;12.396;2023-04-25T14:27:24;3.03;;;2.33;;
4210;SDS011;2119;48.828;12.396;2023-04-25T14:32:26;3.90;;;3.03;;
4210;SDS011;2119;48.828;12.396;2023-04-25T14:37:26;2.93;;;2.73;;
4210;SDS011;2119;48.828;12.396;2023-04-25T14:42:26;3.42;;;3.15;;
4210;SDS011;2119;48.828;12.396;2023-04-25T14:47:26;2.90;;;2.60;;
4210;SDS011;2119;48.828;12.396;2023-04-25T14:52:27;4.50;;;3.45;;
4210;SDS011;2119;48.828;12.396;2023-04-25T14:57:27;3.30;;;2.73;;
4210;SDS011;2119;48.828;12.396;2023-04-25T15:02:28;2.90;;;2.00;;
4210;SDS011;2119;48.828;12.396;2023-04-25T15:07:29;3.20;;;2.27;;
4210;SDS011;2119;48.828;12.396;2023-04-25T15:12:29;2.43;;;1.70;;
4210;SDS011;2119;48.828;12.396;2023-04-25T15:17:30;2.40;;;2.20;;
4210;SDS011;2119;48.828;12.396;2023-04-25T15:22:31;2.27;;;2.13;;
4210;SDS011;2119;48.828;12.396;2023-04-25T15:27:31;3.13;;;2.83;;
4210;SDS011;2119;48.828;12.396;2023-04-25T15:32:32;4.60;;;4.07;;
4210;SDS011;2119;48.828;12.396;2023-04-25T15:37:35;3.53;;;3.23;;
4210;SDS011;2119;48.828;12.396;2023-04-25T15:42:36;3.70;;;3.40;;
4210;SDS011;2119;48.828;12.396;2023-04-25T15:47:38;1.77;;;1.67;;
4210;SDS011;2119;48.828;12.396;2023-04-25T15:52:39;3.50;;;1.70;;
4210;SDS011;2119;48.828;12.396;2023-04-25T15:57:40;1.80;;;1.60;;
4210;SDS011;2119;48.828;12.396;2023-04-25T16:02:41;2.50;;;2.30;;
4210;SDS011;2119;48.828;12.396;2023-04-25T16:07:43;1.80;;;1.60;;
4210;SDS011;2119;48.828;12.396;2023-04-25T16:12:44;2.80;;;1.60;;
4210;SDS011;2119;48.828;12.396;2023-04-25T16:17:48;1.87;;;1.63;;
4210;SDS011;2119;48.828;12.396;2023-04-25T16:22:50;2.57;;;2.37;;
4210;SDS011;2119;48.828;12.396;2023-04-25T16:27:53;2.70;;;2.50;;
4210;SDS011;2119;48.828;12.396;2023-04-25T16:32:53;1.50;;;1.40;;
4210;SDS011;2119;48.828;12.396;2023-04-25T16:37:58;1.50;;;1.40;;
4210;SDS011;2119;48.828;12.396;2023-04-25T16:42:59;1.80;;;1.60;;
4210;SDS011;2119;48.828;12.396;2023-04-25T16:48:00;1.80;;;1.70;;
4210;SDS011;2119;48.828;12.396;2023-04-25T16:53:01;2.20;;;2.07;;
4210;SDS011;2119;48.828;12.396;2023-04-25T16:58:03;1.60;;;1.50;;
4210;SDS011;2119;48.828;12.396;2023-04-25T17:03:03;1.93;;;1.80;;
4210;SDS011;2119;48.828;12.396;2023-04-25T17:08:04;3.50;;;1.95;;
4210;SDS011;2119;48.828;12.396;2023-04-25T17:13:04;2.30;;;1.90;;
4210;SDS011;2119;48.828;12.396;2023-04-25T17:18:04;1.50;;;1.40;;
4210;SDS011;2119;48.828;12.396;2023-04-25T17:23:10;2.40;;;2.20;;
4210;SDS011;2119;48.828;12.396;2023-04-25T17:28:11;2.93;;;1.90;;
4210;SDS011;2119;48.828;12.396;2023-04-25T17:33:12;1.93;;;1.83;;
4210;SDS011;2119;48.828;12.396;2023-04-25T17:38:13;1.60;;;1.50;;
4210;SDS011;2119;48.828;12.396;2023-04-25T17:43:14;1.93;;;1.83;;
4210;SDS011;2119;48.828;12.396;2023-04-25T17:53:18;2.63;;;2.43;;
4210;SDS011;2119;48.828;12.396;2023-04-25T17:58:18;4.37;;;4.03;;
4210;SDS011;2119;48.828;12.396;2023-04-25T18:03:18;4.93;;;4.50;;
4210;SDS011;2119;48.828;12.396;2023-04-25T18:08:20;2.78;;;2.58;;
4210;SDS011;2119;48.828;12.396;2023-04-25T18:13:21;3.03;;;2.83;;
4210;SDS011;2119;48.828;12.396;2023-04-25T18:18:22;2.70;;;2.30;;
4210;SDS011;2119;48.828;12.396;2023-04-25T18:23:24;2.30;;;1.90;;
4210;SDS011;2119;48.828;12.396;2023-04-25T18:28:27;2.37;;;2.17;;
4210;SDS011;2119;48.828;12.396;2023-04-25T18:33:34;2.57;;;2.37;;
4210;SDS011;2119;48.828;12.396;2023-04-25T18:38:42;3.33;;;3.03;;
4210;SDS011;2119;48.828;12.396;2023-04-25T18:43:43;2.73;;;2.53;;
4210;SDS011;2119;48.828;12.396;2023-04-25T18:48:52;4.50;;;2.60;;
4210;SDS011;2119;48.828;12.396;2023-04-25T18:53:54;2.93;;;2.10;;
4210;SDS011;2119;48.828;12.396;2023-04-25T18:58:54;2.53;;;2.33;;
4210;SDS011;2119;48.828;12.396;2023-04-25T19:03:56;4.00;;;2.43;;
4210;SDS011;2119;48.828;12.396;2023-04-25T19:08:56;3.90;;;2.43;;
4210;SDS011;2119;48.828;12.396;2023-04-25T19:19:00;2.60;;;2.40;;
4210;SDS011;2119;48.828;12.396;2023-04-25T19:24:01;5.13;;;3.03;;
4210;SDS011;2119;48.828;12.396;2023-04-25T19:34:06;3.10;;;2.63;;
4210;SDS011;2119;48.828;12.396;2023-04-25T19:39:07;2.53;;;2.33;;
4210;SDS011;2119;48.828;12.396;2023-04-25T19:44:07;3.77;;;3.33;;
4210;SDS011;2119;48.828;12.396;2023-04-25T19:49:09;3.75;;;3.45;;
4210;SDS011;2119;48.828;12.396;2023-04-25T19:54:11;4.23;;;3.83;;
4210;SDS011;2119;48.828;12.396;2023-04-25T19:59:11;8.73;;;6.50;;
4210;SDS011;2119;48.828;12.396;2023-04-25T20:04:11;3.67;;;3.38;;
4210;SDS011;2119;48.828;12.396;2023-04-25T20:09:14;15.30;;;8.97;;
4210;SDS011;2119;48.828;12.396;2023-04-25T20:14:18;3.87;;;3.47;;
4210;SDS011;2119;48.828;12.396;2023-04-25T20:19:20;3.17;;;2.90;;
4210;SDS011;2119;48.828;12.396;2023-04-25T20:24:22;4.23;;;3.83;;
4210;SDS011;2119;48.828;12.396;2023-04-25T20:29:23;4.70;;;3.97;;
4210;SDS011;2119;48.828;12.396;2023-04-25T20:34:24;4.40;;;4.00;;
4210;SDS011;2119;48.828;12.396;2023-04-25T20:39:25;4.77;;;4.37;;
4210;SDS011;2119;48.828;12.396;2023-04-25T20:44:25;3.50;;;2.57;;
4210;SDS011;2119;48.828;12.396;2023-04-25T20:49:26;3.45;;;3.15;;
4210;SDS011;2119;48.828;12.396;2023-04-25T20:54:26;3.28;;;2.97;;
4210;SDS011;2119;48.828;12.396;2023-04-25T20:59:26;3.43;;;3.13;;
4210;SDS011;2119;48.828;12.396;2023-04-25T21:04:27;5.10;;;3.23;;
4210;SDS011;2119;48.828;12.396;2023-04-25T21:09:27;3.10;;;2.90;;
4210;SDS011;2119;48.828;12.396;2023-04-25T21:14:28;3.90;;;3.50;;
4210;SDS011;2119;48.828;12.396;2023-04-25T21:19:28;3.20;;;3.00;;
4210;SDS011;2119;48.828;12.396;2023-04-25T21:24:28;3.57;;;3.27;;
4210;SDS011;2119;48.828;12.396;2023-04-25T21:29:30;3.43;;;3.13;;
4210;SDS011;2119;48.828;12.396;2023-04-25T21:34:32;4.00;;;3.70;;
4210;SDS011;2119;48.828;12.396;2023-04-25T21:39:40;3.57;;;3.27;;
4210;SDS011;2119;48.828;12.396;2023-04-25T21:44:41;4.60;;;3.47;;
4210;SDS011;2119;48.828;12.396;2023-04-25T21:49:42;4.05;;;3.40;;
4210;SDS011;2119;48.828;12.396;2023-04-25T21:54:42;5.23;;;3.60;;
4210;SDS011;2119;48.828;12.396;2023-04-25T21:59:42;3.30;;;3.00;;
4210;SDS011;2119;48.828;12.396;2023-04-25T22:04:43;3.72;;;3.40;;
4210;SDS011;2119;48.828;12.396;2023-04-25T22:09:47;3.73;;;3.43;;
4210;SDS011;2119;48.828;12.396;2023-04-25T22:14:47;3.77;;;3.47;;
4210;SDS011;2119;48.828;12.396;2023-04-25T22:19:47;3.90;;;3.60;;
4210;SDS011;2119;48.828;12.396;2023-04-25T22:24:48;5.30;;;3.40;;
4210;SDS011;2119;48.828;12.396;2023-04-25T22:29:48;6.33;;;3.20;;
4210;SDS011;2119;48.828;12.396;2023-04-25T22:34:49;7.25;;;3.42;;
4210;SDS011;2119;48.828;12.396;2023-04-25T22:39:49;4.63;;;3.80;;
4210;SDS011;2119;48.828;12.396;2023-04-25T22:44:50;4.30;;;3.90;;
4210;SDS011;2119;48.828;12.396;2023-04-25T22:49:51;3.90;;;3.60;;
4210;SDS011;2119;48.828;12.396;2023-04-25T22:54:52;4.20;;;3.80;;
4210;SDS011;2119;48.828;12.396;2023-04-25T22:59:53;4.23;;;3.70;;
4210;SDS011;2119;48.828;12.396;2023-04-25T23:04:55;4.57;;;4.00;;
4210;SDS011;2119;48.828;12.396;2023-04-25T23:09:55;4.03;;;3.63;;
4210;SDS011;2119;48.828;12.396;2023-04-25T23:14:55;5.27;;;4.30;;
4210;SDS011;2119;48.828;12.396;2023-04-25T23:19:56;4.93;;;3.93;;
4210;SDS011;2119;48.828;12.396;2023-04-25T23:24:56;4.70;;;3.80;;
4210;SDS011;2119;48.828;12.396;2023-04-25T23:29:56;3.73;;;3.47;;
4210;SDS011;2119;48.828;12.396;2023-04-25T23:34:57;4.85;;;3.45;;
4210;SDS011;2119;48.828;12.396;2023-04-25T23:40:01;5.97;;;3.85;;
4210;SDS011;2119;48.828;12.396;2023-04-25T23:45:07;5.43;;;4.13;;
4210;SDS011;2119;48.828;12.396;2023-04-25T23:50:08;5.43;;;4.30;;
4210;SDS011;2119;48.828;12.396;2023-04-25T23:55:08;4.27;;;3.87;;
